Time;durP1;ratioP1;P1;durP2;ratioP2;P2;SDS_P1;SDS_P2;PMS_P1;PMS_P2;Temp;Humidity;BMP_temperature;BMP_pressure;BME280_temperature;BME280_humidity;BME280_pressure;Samples;Min_cycle;Max_cycle;Signal;HPM_P1;HPM_P2
2023/06/30 00:00:45;;;;;;;7.28;4.68;;;;;;;-146.25;100.00;52210.03;2097521;28;26787;-75
2023/06/30 00:01:50;;;;;;;7.82;4.57;;;;;;;-146.25;100.00;52179.63;2096655;28;31885;-74
2023/06/30 00:02:52;;;;;;;7.45;4.22;;;;;;;-146.25;100.00;52210.03;2097019;28;34615;-75
2023/06/30 00:03:54;;;;;;;7.25;4.18;;;;;;;-146.25;100.00;52224.25;2096947;28;39435;-74
2023/06/30 00:04:57;;;;;;;5.10;4.10;;;;;;;-146.25;100.00;52210.03;2097158;28;31507;-75
2023/06/30 00:05:59;;;;;;;7.30;4.45;;;;;;;-146.25;100.00;52191.81;2097663;28;20140;-74
2023/06/30 00:07:00;;;;;;;7.80;4.22;;;;;;;-146.25;100.00;52238.44;2097142;28;33633;-74
2023/06/30 00:08:03;;;;;;;7.03;4.63;;;;;;;-146.25;100.00;52191.81;2096186;28;36460;-74
2023/06/30 00:09:05;;;;;;;6.15;3.75;;;;;;;-146.25;100.00;52238.44;2096599;28;34102;-73
2023/06/30 00:10:07;;;;;;;6.50;4.03;;;;;;;-146.25;100.00;52195.84;2088085;28;35325;-73
2023/06/30 00:11:10;;;;;;;5.88;4.03;;;;;;;-146.25;100.00;52220.19;2087960;28;35770;-74
2023/06/30 00:12:11;;;;;;;6.38;4.07;;;;;;;-146.25;100.00;52173.56;2097378;28;30321;-74
2023/06/30 00:13:13;;;;;;;9.02;4.55;;;;;;;-146.25;100.00;52222.22;2096456;28;37922;-75
2023/06/30 00:14:18;;;;;;;6.40;3.58;;;;;;;-146.25;100.00;52220.19;2097207;28;35982;-74
2023/06/30 00:15:22;;;;;;;7.15;4.13;;;;;;;-146.25;100.00;52256.69;2097140;28;32963;-74
2023/06/30 00:16:24;;;;;;;5.68;4.15;;;;;;;-146.25;100.00;52197.88;2096719;28;38620;-74
2023/06/30 00:17:26;;;;;;;5.18;4.05;;;;;;;-146.25;100.00;52238.44;2096905;28;34070;-73
2023/06/30 00:18:29;;;;;;;8.43;3.97;;;;;;;-146.25;100.00;52232.34;2104280;28;35387;-74
2023/06/30 00:19:31;;;;;;;7.32;4.40;;;;;;;-146.25;100.00;52210.03;2104641;28;32872;-75
2023/06/30 00:20:33;;;;;;;8.48;4.07;;;;;;;-146.25;100.00;52230.31;2097077;28;33103;-74
2023/06/30 00:21:41;;;;;;;8.50;4.35;;;;;;;-146.25;100.00;52203.97;2097919;28;20084;-75
2023/06/30 00:22:44;;;;;;;6.90;4.63;;;;;;;-146.25;100.00;52203.97;2105021;28;34897;-74
2023/06/30 00:23:46;;;;;;;4.85;4.05;;;;;;;-146.25;100.00;52187.75;2104034;28;35997;-74
2023/06/30 00:24:58;;;;;;;7.80;4.28;;;;;;;-146.25;100.00;52206.00;2097396;28;20825;-74
2023/06/30 00:26:01;;;;;;;5.75;4.25;;;;;;;-146.25;100.00;52214.09;2097262;28;31637;-74
2023/06/30 00:27:03;;;;;;;5.70;4.40;;;;;;;-146.25;100.00;52220.19;2096835;28;36650;-75
2023/06/30 00:28:05;;;;;;;7.35;4.13;;;;;;;-146.25;100.00;52214.09;2097470;28;20110;-74
2023/06/30 00:29:10;;;;;;;10.13;4.72;;;;;;;-146.25;100.00;52201.94;2097617;28;20128;-74
2023/06/30 00:30:13;;;;;;;7.43;4.20;;;;;;;-146.25;100.00;52224.25;2096144;28;32382;-75
2023/06/30 00:31:14;;;;;;;7.78;4.47;;;;;;;-146.25;100.00;52212.06;2096387;28;28058;-75
2023/06/30 00:32:16;;;;;;;6.25;4.40;;;;;;;-146.25;100.00;52210.03;2097194;28;24507;-75
2023/06/30 00:33:19;;;;;;;6.57;3.88;;;;;;;-146.25;100.00;52218.16;2104972;28;20125;-74
2023/06/30 00:34:22;;;;;;;6.95;4.35;;;;;;;-146.25;100.00;52230.31;2104737;28;20081;-75
2023/06/30 00:35:24;;;;;;;9.85;4.00;;;;;;;-146.25;100.00;52228.28;2104546;28;30151;-75
2023/06/30 00:36:28;;;;;;;6.20;4.00;;;;;;;-146.25;100.00;52193.81;2105307;28;20086;-75
2023/06/30 00:37:31;;;;;;;5.45;4.20;;;;;;;-146.25;100.00;52189.78;2105163;28;20040;-74
2023/06/30 00:38:32;;;;;;;7.70;4.15;;;;;;;-146.25;100.00;52212.06;2096608;28;20156;-75
2023/06/30 00:39:34;;;;;;;8.55;4.55;;;;;;;-146.25;100.00;52206.00;2096609;28;23771;-74
2023/06/30 00:40:36;;;;;;;6.40;4.03;;;;;;;-146.25;100.00;52218.16;2096830;28;32901;-75
2023/06/30 00:41:38;;;;;;;5.18;4.00;;;;;;;-146.25;100.00;52224.25;2097561;28;20079;-74
2023/06/30 00:42:40;;;;;;;5.93;4.38;;;;;;;-146.25;100.00;52187.75;2097007;28;22674;-75
2023/06/30 00:43:42;;;;;;;5.45;4.22;;;;;;;-146.25;100.00;52187.75;2104799;28;30038;-73
2023/06/30 00:44:44;;;;;;;7.72;4.93;;;;;;;-146.25;100.00;52234.38;2096451;28;20130;-74
2023/06/30 00:45:46;;;;;;;5.63;4.03;;;;;;;-146.25;100.00;52175.56;2088328;28;25517;-74
2023/06/30 00:46:48;;;;;;;7.60;4.45;;;;;;;-146.25;100.00;52179.63;2096781;28;24866;-74
2023/06/30 00:47:50;;;;;;;5.40;4.90;;;;;;;-146.25;100.00;52189.78;2096321;28;31432;-75
2023/06/30 00:48:52;;;;;;;6.25;5.10;;;;;;;-146.25;100.00;52171.53;2088024;28;26091;-74
2023/06/30 00:49:54;;;;;;;5.80;5.13;;;;;;;-146.25;100.00;52201.94;2080252;28;20054;-75
2023/06/30 00:50:55;;;;;;;9.45;5.38;;;;;;;-146.25;100.00;52199.91;2079983;28;34103;-74
2023/06/30 00:51:59;;;;;;;8.80;5.50;;;;;;;-146.25;100.00;52240.47;2088791;28;24396;-74
2023/06/30 00:53:01;;;;;;;8.88;5.65;;;;;;;-146.25;100.00;52220.19;2080020;28;23919;-74
2023/06/30 00:54:04;;;;;;;9.43;6.45;;;;;;;-146.25;100.00;52193.81;2089180;28;20842;-73
2023/06/30 00:55:07;;;;;;;8.55;5.95;;;;;;;-146.25;100.00;52214.09;2105112;28;24030;-74
2023/06/30 00:56:11;;;;;;;7.88;6.30;;;;;;;-146.25;100.00;52218.16;2105067;28;20045;-75
2023/06/30 00:57:13;;;;;;;9.20;5.93;;;;;;;-146.25;100.00;52240.47;2096197;28;27513;-75
2023/06/30 00:58:14;;;;;;;10.60;6.65;;;;;;;-146.25;100.00;52203.97;2096327;28;20037;-75
2023/06/30 00:59:16;;;;;;;10.27;6.68;;;;;;;-146.25;100.00;52203.97;2096136;28;32040;-75
2023/06/30 01:00:19;;;;;;;9.05;6.07;;;;;;;-146.25;100.00;52189.78;2096071;28;38131;-74
2023/06/30 01:01:47;;;;;;;10.07;6.82;;;;;;;-146.25;100.00;52232.34;2104988;28;20063;-75
2023/06/30 01:03:38;;;;;;;11.73;6.35;;;;;;;-146.25;100.00;52230.31;2096593;28;40636;-74
2023/06/30 01:05:20;;;;;;;8.05;6.45;;;;;;;-146.25;100.00;52234.38;2071332;28;29042;-74
2023/06/30 01:06:39;;;;;;;8.77;5.90;;;;;;;-146.25;100.00;52220.19;2078301;28;20048;-75
2023/06/30 01:07:51;;;;;;;8.75;5.80;;;;;;;-146.25;100.00;52222.22;2096383;28;27038;-75
2023/06/30 01:09:21;;;;;;;7.90;6.03;;;;;;;-146.25;100.00;52208.03;2089393;28;25738;-75
2023/06/30 01:10:26;;;;;;;11.13;6.60;;;;;;;-146.25;100.00;52230.31;2096432;28;37232;-74
2023/06/30 01:11:32;;;;;;;8.38;6.38;;;;;;;-146.25;100.00;52199.91;2104711;28;31572;-75
2023/06/30 01:12:38;;;;;;;8.77;5.97;;;;;;;-146.25;100.00;52220.19;2096371;28;20048;-74
2023/06/30 01:13:44;;;;;;;8.57;6.00;;;;;;;-146.25;100.00;52203.97;2088533;28;35016;-75
2023/06/30 01:14:48;;;;;;;9.73;6.72;;;;;;;-146.25;100.00;52214.09;2081143;28;20231;-74
2023/06/30 01:15:52;;;;;;;8.52;6.13;;;;;;;-146.25;100.00;52203.97;2080842;28;35758;-75
2023/06/30 01:16:55;;;;;;;6.75;6.00;;;;;;;-146.25;100.00;52173.56;2096026;28;31518;-74
2023/06/30 01:18:02;;;;;;;9.70;6.15;;;;;;;-146.25;100.00;52212.06;2096401;28;20052;-75
2023/06/30 01:19:11;;;;;;;7.65;6.70;;;;;;;-146.25;100.00;52222.22;2096197;28;20810;-74
2023/06/30 01:20:16;;;;;;;8.00;6.28;;;;;;;-146.25;100.00;52212.06;2096162;28;20965;-75
2023/06/30 01:21:21;;;;;;;8.20;6.55;;;;;;;-146.25;100.00;52212.06;2095915;28;30288;-75
2023/06/30 01:22:31;;;;;;;7.25;5.30;;;;;;;-146.25;100.00;52210.03;2104237;28;32367;-72
2023/06/30 01:23:38;;;;;;;11.70;6.95;;;;;;;-146.25;100.00;52214.09;2088587;28;20131;-74
2023/06/30 01:24:41;;;;;;;10.88;6.53;;;;;;;-146.25;100.00;52208.03;2090056;28;27692;-75
2023/06/30 01:25:47;;;;;;;9.65;5.97;;;;;;;-146.25;100.00;52226.25;2097129;28;20114;-74
2023/06/30 01:26:52;;;;;;;10.38;6.43;;;;;;;-146.25;100.00;52222.22;2097429;28;20155;-75
2023/06/30 01:27:56;;;;;;;10.95;6.22;;;;;;;-146.25;100.00;52208.03;2095381;28;37248;-75
2023/06/30 01:28:58;;;;;;;6.72;5.93;;;;;;;-146.25;100.00;52248.56;2095989;28;34350;-75
2023/06/30 01:29:59;;;;;;;7.93;6.13;;;;;;;-146.25;100.00;52222.22;2095835;28;28335;-74
2023/06/30 01:31:08;;;;;;;7.78;6.30;;;;;;;-146.25;100.00;52250.59;2096245;28;24919;-74
2023/06/30 01:32:16;;;;;;;9.90;6.28;;;;;;;-146.25;100.00;52212.06;2104890;28;22146;-75
2023/06/30 01:33:22;;;;;;;8.68;6.15;;;;;;;-146.25;100.00;52222.22;2104595;28;20099;-74
2023/06/30 01:34:24;;;;;;;8.68;5.95;;;;;;;-146.25;100.00;52248.56;2104299;28;20793;-74
2023/06/30 01:35:27;;;;;;;6.72;5.70;;;;;;;-146.25;100.00;52256.69;2096844;28;28702;-72
2023/06/30 01:36:31;;;;;;;6.40;5.53;;;;;;;-146.25;100.00;52177.59;2095415;28;32538;-75
2023/06/30 01:37:33;;;;;;;10.68;5.28;;;;;;;-146.25;100.00;52191.81;2088306;28;20053;-75
2023/06/30 01:38:35;;;;;;;7.22;6.50;;;;;;;-146.25;100.00;52230.31;2096015;28;27202;-75
2023/06/30 01:39:37;;;;;;;9.82;6.75;;;;;;;-146.25;100.00;52199.91;2095933;28;27000;-74
2023/06/30 01:40:39;;;;;;;10.80;5.80;;;;;;;-146.25;100.00;52197.88;2087242;28;28454;-75
2023/06/30 01:41:44;;;;;;;8.05;6.85;;;;;;;-146.25;100.00;52212.06;2080346;28;20126;-74
2023/06/30 01:42:47;;;;;;;8.05;6.32;;;;;;;-146.25;100.00;52224.25;2088193;28;23241;-75
2023/06/30 01:43:50;;;;;;;9.35;5.93;;;;;;;-146.25;100.00;52214.09;2104102;28;29798;-74
2023/06/30 01:44:53;;;;;;;10.82;6.25;;;;;;;-146.25;100.00;52234.38;2095887;28;32801;-75
2023/06/30 01:45:55;;;;;;;10.68;6.43;;;;;;;-146.25;100.00;52220.19;2096881;28;20901;-75
2023/06/30 01:46:57;;;;;;;12.90;6.63;;;;;;;-146.25;100.00;52218.16;2104757;28;25014;-75
2023/06/30 01:47:59;;;;;;;9.95;6.57;;;;;;;-146.25;100.00;52254.66;2104463;28;27926;-75
2023/06/30 01:49:01;;;;;;;11.20;6.70;;;;;;;-146.25;100.00;52250.59;2103400;28;30916;-76
2023/06/30 01:50:05;;;;;;;6.70;5.80;;;;;;;-146.25;100.00;52226.25;2097084;28;20557;-74
2023/06/30 01:51:08;;;;;;;12.60;5.93;;;;;;;-146.25;100.00;52201.94;2104319;28;24169;-75
2023/06/30 01:52:10;;;;;;;8.80;5.82;;;;;;;-146.25;100.00;52226.25;2095543;28;28087;-75
2023/06/30 01:53:14;;;;;;;12.77;6.18;;;;;;;-146.25;100.00;52228.28;2095730;28;26346;-75
2023/06/30 01:54:18;;;;;;;12.13;6.60;;;;;;;-146.25;100.00;52212.06;2096339;28;20060;-75
2023/06/30 01:55:21;;;;;;;7.03;5.80;;;;;;;-146.25;100.00;52210.03;2097199;28;20154;-75
2023/06/30 01:56:26;;;;;;;10.25;6.35;;;;;;;-146.25;100.00;52240.47;2096473;28;20273;-74
2023/06/30 01:57:27;;;;;;;6.93;6.20;;;;;;;-146.25;100.00;52234.38;2096409;28;20237;-75
2023/06/30 01:58:31;;;;;;;12.68;6.15;;;;;;;-146.25;100.00;52177.59;2103659;28;27453;-74
2023/06/30 01:59:33;;;;;;;11.68;7.00;;;;;;;-146.25;100.00;52224.25;2095683;28;27293;-75
2023/06/30 02:00:37;;;;;;;11.52;6.50;;;;;;;-146.25;100.00;52234.38;2095183;28;29725;-75
2023/06/30 02:01:39;;;;;;;12.38;6.50;;;;;;;-146.25;100.00;52226.25;2095927;28;30066;-75
2023/06/30 02:02:41;;;;;;;9.63;6.53;;;;;;;-146.25;100.00;52242.50;2096285;28;20086;-75
2023/06/30 02:03:44;;;;;;;11.68;6.47;;;;;;;-146.25;100.00;52214.09;2088170;28;20045;-75
2023/06/30 02:04:46;;;;;;;10.82;6.20;;;;;;;-146.25;100.00;52230.31;2096265;28;20155;-74
2023/06/30 02:05:50;;;;;;;9.02;6.47;;;;;;;-146.25;100.00;52208.03;2096598;28;20048;-74
2023/06/30 02:06:51;;;;;;;9.20;6.43;;;;;;;-146.25;100.00;52210.03;2096647;28;25158;-75
2023/06/30 02:07:55;;;;;;;6.28;5.68;;;;;;;-146.25;100.00;52230.31;2096629;28;20763;-74
2023/06/30 02:08:57;;;;;;;10.02;6.30;;;;;;;-146.25;100.00;52242.50;2096259;28;27514;-75
2023/06/30 02:09:59;;;;;;;11.85;6.43;;;;;;;-146.25;100.00;52230.31;2096125;28;28760;-75
2023/06/30 02:11:03;;;;;;;13.63;6.90;;;;;;;-146.25;100.00;52226.25;2096220;28;20053;-75
2023/06/30 02:12:05;;;;;;;10.02;6.40;;;;;;;-146.25;100.00;52266.81;2096861;28;20868;-75
2023/06/30 02:13:10;;;;;;;11.73;6.82;;;;;;;-146.25;100.00;52234.38;2086888;28;20931;-74
2023/06/30 02:14:12;;;;;;;12.05;5.85;;;;;;;-146.25;100.00;52210.03;2087722;28;28681;-74
2023/06/30 02:15:14;;;;;;;11.75;5.78;;;;;;;-146.25;100.00;52230.31;2087785;28;28730;-75
2023/06/30 02:16:15;;;;;;;8.95;6.03;;;;;;;-146.25;100.00;52262.75;2087370;28;31000;-74
2023/06/30 02:17:35;;;;;;;11.77;6.45;;;;;;;-146.25;100.00;52224.25;2087780;28;20093;-75
2023/06/30 02:18:39;;;;;;;12.65;6.60;;;;;;;-146.25;100.00;52222.22;2088141;28;32581;-75
2023/06/30 02:19:41;;;;;;;10.05;6.30;;;;;;;-146.25;100.00;52224.25;2088716;28;20120;-75
2023/06/30 02:20:43;;;;;;;11.45;6.38;;;;;;;-146.25;100.00;52234.38;2088207;28;27116;-75
2023/06/30 02:21:45;;;;;;;11.93;6.70;;;;;;;-146.25;100.00;52242.50;2087240;28;33177;-75
2023/06/30 02:22:47;;;;;;;11.27;6.45;;;;;;;-146.25;100.00;52216.13;2079541;28;20073;-74
2023/06/30 02:23:51;;;;;;;9.30;6.70;;;;;;;-146.25;100.00;52226.25;2087662;28;28405;-74
2023/06/30 02:24:56;;;;;;;9.35;6.57;;;;;;;-146.25;100.00;52228.28;2088318;28;20034;-75
2023/06/30 02:26:00;;;;;;;11.98;7.03;;;;;;;-146.25;100.00;52250.59;2087363;28;33682;-74
2023/06/30 02:27:03;;;;;;;14.18;6.38;;;;;;;-146.25;100.00;52252.63;2087313;28;38037;-75
2023/06/30 02:28:05;;;;;;;11.07;5.97;;;;;;;-146.25;100.00;52232.34;2087939;28;20038;-75
2023/06/30 02:29:07;;;;;;;11.32;6.47;;;;;;;-146.25;100.00;52238.44;2087930;28;33673;-74
2023/06/30 02:30:09;;;;;;;11.60;6.53;;;;;;;-146.25;100.00;52228.28;2088457;28;20101;-75
2023/06/30 02:31:11;;;;;;;12.73;6.60;;;;;;;-146.25;100.00;52222.22;2089030;28;20909;-72
2023/06/30 02:32:15;;;;;;;14.25;6.82;;;;;;;-146.25;100.00;52242.50;2087270;28;30704;-75
2023/06/30 02:33:17;;;;;;;9.82;6.13;;;;;;;-146.25;100.00;52240.47;2087951;28;27848;-75
2023/06/30 02:34:19;;;;;;;8.85;6.65;;;;;;;-146.25;100.00;52197.88;2078722;28;31017;-74
2023/06/30 02:35:21;;;;;;;13.23;6.53;;;;;;;-146.25;100.00;52238.44;2080156;28;20089;-75
2023/06/30 02:36:23;;;;;;;13.30;7.05;;;;;;;-146.25;100.00;52240.47;2088135;28;28396;-74
2023/06/30 02:37:25;;;;;;;12.95;6.65;;;;;;;-146.25;100.00;52220.19;2087278;28;35372;-75
2023/06/30 02:38:31;;;;;;;13.07;6.47;;;;;;;-146.25;100.00;52226.25;2088234;28;20949;-74
2023/06/30 02:39:33;;;;;;;11.65;6.97;;;;;;;-146.25;100.00;52244.50;2087820;28;32987;-75
2023/06/30 02:40:36;;;;;;;14.93;7.07;;;;;;;-146.25;100.00;52218.16;2088402;28;20041;-75
2023/06/30 02:41:38;;;;;;;13.43;6.93;;;;;;;-146.25;100.00;52276.97;2087621;28;35202;-74
2023/06/30 02:42:42;;;;;;;9.55;6.53;;;;;;;-146.25;100.00;52224.25;2090899;28;20045;-75
2023/06/30 02:43:44;;;;;;;16.58;7.43;;;;;;;-146.25;100.00;52197.88;2096172;28;20634;-75
2023/06/30 02:44:49;;;;;;;8.98;6.88;;;;;;;-146.25;100.00;52254.66;2103906;28;20861;-74
2023/06/30 02:45:51;;;;;;;12.60;7.63;;;;;;;-146.25;100.00;52222.22;2095741;28;20060;-75
2023/06/30 02:46:55;;;;;;;14.90;7.22;;;;;;;-146.25;100.00;52250.59;2095543;28;20085;-75
2023/06/30 02:47:58;;;;;;;14.32;7.30;;;;;;;-146.25;100.00;52250.59;2103982;28;20036;-74
2023/06/30 02:49:00;;;;;;;13.10;7.45;;;;;;;-146.25;100.00;52224.25;2104000;28;20917;-75
2023/06/30 02:50:05;;;;;;;15.60;7.45;;;;;;;-146.25;100.00;52256.69;2095950;28;20805;-75
2023/06/30 02:51:08;;;;;;;17.70;7.72;;;;;;;-146.25;100.00;52246.53;2096269;28;20042;-74
2023/06/30 02:52:10;;;;;;;9.05;6.32;;;;;;;-146.25;100.00;52226.25;2096011;28;20808;-74
2023/06/30 02:53:14;;;;;;;16.67;7.15;;;;;;;-146.25;100.00;52195.84;2095882;28;20090;-74
2023/06/30 02:54:16;;;;;;;9.82;6.35;;;;;;;-146.25;100.00;52234.38;2104757;28;20842;-75
2023/06/30 02:55:23;;;;;;;14.77;7.45;;;;;;;-146.25;100.00;52226.25;2095495;28;20032;-75
2023/06/30 02:56:25;;;;;;;19.73;7.78;;;;;;;-146.25;100.00;52240.47;2095484;28;24178;-75
2023/06/30 02:57:26;;;;;;;16.33;7.78;;;;;;;-146.25;100.00;52244.50;2104368;28;20037;-74
2023/06/30 02:58:28;;;;;;;13.75;7.45;;;;;;;-146.25;100.00;52218.16;2095501;28;20122;-74
2023/06/30 02:59:30;;;;;;;16.67;7.68;;;;;;;-146.25;100.00;52218.16;2087501;28;20103;-75
2023/06/30 03:00:36;;;;;;;16.88;7.75;;;;;;;-146.25;100.00;52210.03;2097813;28;20044;-74
2023/06/30 03:01:40;;;;;;;20.58;7.90;;;;;;;-146.25;100.00;52212.06;2097056;28;20076;-74
2023/06/30 03:02:42;;;;;;;11.60;6.93;;;;;;;-146.25;100.00;52206.00;2089507;28;20135;-74
2023/06/30 03:03:46;;;;;;;13.63;7.30;;;;;;;-146.25;100.00;52260.72;2088722;28;20985;-74
2023/06/30 03:04:48;;;;;;;14.93;7.05;;;;;;;-146.25;100.00;52244.50;2089353;28;20176;-75
2023/06/30 03:05:51;;;;;;;12.20;7.00;;;;;;;-146.25;100.00;52214.09;2097227;28;20112;-74
2023/06/30 03:06:53;;;;;;;13.18;6.82;;;;;;;-146.25;100.00;52226.25;2097321;28;20124;-74
2023/06/30 03:07:55;;;;;;;12.30;6.95;;;;;;;-146.25;100.00;52248.56;2097240;28;20049;-74
2023/06/30 03:08:57;;;;;;;15.13;6.80;;;;;;;-146.25;100.00;52274.94;2097292;28;20060;-75
2023/06/30 03:10:03;;;;;;;11.77;7.07;;;;;;;-146.25;100.00;52295.19;2098039;28;20890;-74
2023/06/30 03:11:05;;;;;;;14.90;7.05;;;;;;;-146.25;100.00;52191.81;2097177;28;20077;-75
2023/06/30 03:12:08;;;;;;;13.77;5.95;;;;;;;-146.25;100.00;52262.75;2097292;28;20044;-74
2023/06/30 03:13:09;;;;;;;12.23;6.28;;;;;;;-146.25;100.00;52246.53;2096848;28;20133;-74
2023/06/30 03:14:11;;;;;;;9.73;6.32;;;;;;;-146.25;100.00;52199.91;2097294;28;20126;-75
2023/06/30 03:15:16;;;;;;;11.27;7.05;;;;;;;-146.25;100.00;52244.50;2089020;28;20048;-75
2023/06/30 03:16:21;;;;;;;20.08;7.38;;;;;;;-146.25;100.00;52226.25;2089078;28;20909;-75
2023/06/30 03:17:23;;;;;;;11.38;6.70;;;;;;;-146.25;100.00;52270.88;2088960;28;20790;-74
2023/06/30 03:18:25;;;;;;;13.13;7.38;;;;;;;-146.25;100.00;52254.66;2088878;28;20030;-75
2023/06/30 03:19:27;;;;;;;13.82;7.05;;;;;;;-146.25;100.00;52240.47;2089778;28;20144;-74
2023/06/30 03:20:28;;;;;;;15.65;6.63;;;;;;;-146.25;100.00;52242.50;2088652;28;20041;-74
2023/06/30 03:21:31;;;;;;;12.95;6.38;;;;;;;-146.25;100.00;52242.50;2089040;28;20958;-74
2023/06/30 03:22:32;;;;;;;10.38;5.45;;;;;;;-146.25;100.00;52256.69;2096762;28;27891;-75
2023/06/30 03:23:34;;;;;;;14.43;6.57;;;;;;;-146.25;100.00;52240.47;2096956;28;20814;-75
2023/06/30 03:24:36;;;;;;;13.88;6.05;;;;;;;-146.25;100.00;52216.13;2088771;28;20132;-72
2023/06/30 03:25:38;;;;;;;12.30;6.53;;;;;;;-146.25;100.00;52283.03;2088620;28;29441;-74
2023/06/30 03:26:40;;;;;;;15.30;6.50;;;;;;;-146.25;100.00;52222.22;2088246;28;31254;-75
2023/06/30 03:27:52;;;;;;;13.48;6.32;;;;;;;-146.25;100.00;52254.66;2090345;28;20049;-74
2023/06/30 03:28:54;;;;;;;14.73;6.30;;;;;;;-146.25;100.00;52250.59;2088404;28;20102;-75
2023/06/30 03:29:56;;;;;;;11.43;6.30;;;;;;;-146.25;100.00;52254.66;2089048;28;20148;-76
2023/06/30 03:30:59;;;;;;;16.83;7.03;;;;;;;-146.25;100.00;52240.47;2089351;28;20075;-76
2023/06/30 03:32:03;;;;;;;14.13;5.75;;;;;;;-146.25;100.00;52260.72;2072578;28;20043;-75
2023/06/30 03:33:10;;;;;;;23.00;6.28;;;;;;;-146.25;100.00;52270.88;2081295;28;20049;-76
2023/06/30 03:34:12;;;;;;;14.40;7.25;;;;;;;-146.25;100.00;52274.94;2088977;28;27178;-74
2023/06/30 03:35:17;;;;;;;13.48;6.13;;;;;;;-146.25;100.00;52242.50;2097276;28;20044;-74
2023/06/30 03:36:21;;;;;;;16.45;6.85;;;;;;;-146.25;100.00;52250.59;2096862;28;20044;-74
2023/06/30 03:37:23;;;;;;;10.05;6.40;;;;;;;-146.25;100.00;52238.44;2088395;28;29167;-75
2023/06/30 03:38:25;;;;;;;14.57;6.25;;;;;;;-146.25;100.00;52226.25;2072380;28;20039;-74
2023/06/30 03:39:30;;;;;;;15.68;6.72;;;;;;;-146.25;100.00;52266.81;2080654;28;20077;-74
2023/06/30 03:40:32;;;;;;;15.00;6.05;;;;;;;-146.25;100.00;52242.50;2088822;28;20967;-75
2023/06/30 03:41:34;;;;;;;12.70;6.03;;;;;;;-146.25;100.00;52232.34;2088677;28;20049;-75
2023/06/30 03:42:35;;;;;;;11.73;6.20;;;;;;;-146.25;100.00;52232.34;2090292;28;32131;-74
2023/06/30 03:43:37;;;;;;;9.20;6.30;;;;;;;-146.25;100.00;52220.19;2097303;28;29885;-74
2023/06/30 03:44:39;;;;;;;13.77;6.53;;;;;;;-146.25;100.00;52256.69;2097149;28;29835;-74
2023/06/30 03:45:43;;;;;;;11.32;5.88;;;;;;;-146.25;100.00;52283.03;2105334;28;20037;-74
2023/06/30 03:46:45;;;;;;;14.57;5.25;;;;;;;-146.25;100.00;52262.75;2096554;28;20111;-74
2023/06/30 03:47:47;;;;;;;10.18;5.43;;;;;;;-146.25;100.00;52252.63;2088491;28;20037;-73
2023/06/30 03:48:50;;;;;;;12.88;6.00;;;;;;;-146.25;100.00;52291.16;2088620;28;20127;-74
2023/06/30 03:49:52;;;;;;;11.75;6.03;;;;;;;-146.25;100.00;52238.44;2080302;28;20167;-74
2023/06/30 03:50:54;;;;;;;13.60;6.72;;;;;;;-146.25;100.00;52262.75;2088624;28;20095;-73
2023/06/30 03:51:56;;;;;;;18.50;6.80;;;;;;;-146.25;100.00;52246.53;2088632;28;20789;-73
2023/06/30 03:53:00;;;;;;;14.45;6.30;;;;;;;-146.25;100.00;52236.41;2097449;28;20037;-73
2023/06/30 03:54:02;;;;;;;13.48;5.63;;;;;;;-146.25;100.00;52226.25;2088677;28;20049;-74
2023/06/30 03:55:05;;;;;;;17.77;6.05;;;;;;;-146.25;100.00;52268.84;2080313;28;20168;-74
2023/06/30 03:56:07;;;;;;;12.85;6.03;;;;;;;-146.25;100.00;52218.16;2097287;28;20033;-73
2023/06/30 03:57:09;;;;;;;16.13;6.20;;;;;;;-146.25;100.00;52228.28;2096382;28;34301;-73
2023/06/30 03:58:12;;;;;;;11.60;6.00;;;;;;;-146.25;100.00;52230.31;2096994;28;20842;-74
2023/06/30 03:59:14;;;;;;;10.75;5.63;;;;;;;-146.25;100.00;52222.22;2096755;28;20057;-74
2023/06/30 04:00:19;;;;;;;10.30;5.32;;;;;;;-146.25;100.00;52258.72;2096345;28;34021;-74
2023/06/30 04:01:21;;;;;;;10.15;5.13;;;;;;;-146.25;100.00;52238.44;2098326;28;20175;-72
2023/06/30 04:02:23;;;;;;;9.73;5.32;;;;;;;-146.25;100.00;52307.38;2096728;28;39898;-71
2023/06/30 04:03:26;;;;;;;9.95;5.20;;;;;;;-146.25;100.00;52250.59;2097048;28;34273;-74
2023/06/30 04:04:30;;;;;;;10.23;5.45;;;;;;;-146.25;100.00;52226.25;2097237;28;32144;-73
2023/06/30 04:05:32;;;;;;;12.88;4.68;;;;;;;-146.25;100.00;52303.31;2096843;28;36069;-72
2023/06/30 04:06:36;;;;;;;10.60;5.05;;;;;;;-146.25;100.00;52250.59;2104391;28;39424;-73
2023/06/30 04:07:38;;;;;;;10.55;5.10;;;;;;;-146.25;100.00;52236.41;2104254;28;34736;-74
2023/06/30 04:08:40;;;;;;;11.63;4.85;;;;;;;-146.25;100.00;52244.50;2096853;28;38642;-74
2023/06/30 04:09:42;;;;;;;11.48;5.05;;;;;;;-146.25;100.00;52262.75;2097833;28;20033;-73
2023/06/30 04:10:46;;;;;;;7.13;4.65;;;;;;;-146.25;100.00;52252.63;2097668;28;20037;-74
2023/06/30 04:11:51;;;;;;;10.18;4.22;;;;;;;-146.25;100.00;52242.50;2095582;28;30945;-73
2023/06/30 04:12:53;;;;;;;10.88;5.18;;;;;;;-146.25;100.00;52264.78;2095366;28;33934;-74
2023/06/30 04:13:57;;;;;;;12.32;4.60;;;;;;;-146.25;100.00;52226.25;2088254;28;35448;-74
2023/06/30 04:15:00;;;;;;;9.57;4.45;;;;;;;-146.25;100.00;52236.41;2089281;28;20068;-74
2023/06/30 04:16:01;;;;;;;10.40;4.60;;;;;;;-146.25;100.00;52206.00;2088556;28;35643;-74
2023/06/30 04:17:04;;;;;;;8.77;4.72;;;;;;;-146.25;100.00;52283.03;2088633;28;37411;-74
2023/06/30 04:18:05;;;;;;;9.48;4.90;;;;;;;-146.25;100.00;52234.38;2088438;28;35198;-73
2023/06/30 04:19:07;;;;;;;12.85;4.38;;;;;;;-146.25;100.00;52218.16;2088537;28;37041;-73
2023/06/30 04:20:10;;;;;;;16.77;5.13;;;;;;;-146.25;100.00;52258.72;2089118;28;20092;-74
2023/06/30 04:21:12;;;;;;;11.25;4.60;;;;;;;-146.25;100.00;52325.63;2088548;28;32391;-72
2023/06/30 04:22:13;;;;;;;10.10;4.57;;;;;;;-146.25;100.00;52252.63;2088585;28;32298;-73
2023/06/30 04:23:15;;;;;;;14.63;4.88;;;;;;;-146.25;100.00;52250.59;2089192;28;20041;-75
2023/06/30 04:24:19;;;;;;;12.48;4.38;;;;;;;-146.25;100.00;52250.59;2088520;28;36174;-73
2023/06/30 04:25:21;;;;;;;11.23;4.70;;;;;;;-146.25;100.00;52234.38;2087512;28;39053;-74
2023/06/30 04:26:23;;;;;;;11.63;4.18;;;;;;;-146.25;100.00;52242.50;2088060;28;28465;-73
2023/06/30 04:27:24;;;;;;;12.88;4.28;;;;;;;-146.25;100.00;52250.59;2096284;28;37707;-73
2023/06/30 04:28:29;;;;;;;11.40;4.22;;;;;;;-146.25;100.00;52238.44;2088539;28;31985;-73
2023/06/30 04:29:30;;;;;;;8.07;4.22;;;;;;;-146.25;100.00;52248.56;2088820;28;20046;-74
2023/06/30 04:30:32;;;;;;;11.18;4.35;;;;;;;-146.25;100.00;52244.50;2088543;28;38780;-73
2023/06/30 04:31:35;;;;;;;10.18;3.90;;;;;;;-146.25;100.00;52274.94;2089033;28;20036;-74
2023/06/30 04:32:37;;;;;;;10.02;3.67;;;;;;;-146.25;100.00;52242.50;2088450;28;36380;-73
2023/06/30 04:33:39;;;;;;;11.90;4.25;;;;;;;-146.25;100.00;52272.91;2089952;28;37047;-74
2023/06/30 04:34:40;;;;;;;11.20;3.88;;;;;;;-146.25;100.00;52266.81;2098662;28;31931;-74
2023/06/30 04:35:44;;;;;;;14.80;4.47;;;;;;;-146.25;100.00;52252.63;2096795;28;39572;-75
2023/06/30 04:36:49;;;;;;;10.95;3.90;;;;;;;-146.25;100.00;52220.19;2097101;28;20049;-73
2023/06/30 04:37:54;;;;;;;8.55;3.83;;;;;;;-146.25;100.00;52317.50;2096330;28;35644;-74
2023/06/30 04:38:56;;;;;;;13.30;4.10;;;;;;;-146.25;100.00;52293.19;2096603;28;37911;-73
2023/06/30 04:39:58;;;;;;;7.47;3.90;;;;;;;-146.25;100.00;52270.88;2096736;28;32763;-76
2023/06/30 04:41:01;;;;;;;12.82;3.90;;;;;;;-146.25;100.00;52262.75;2096386;28;38701;-75
2023/06/30 04:42:03;;;;;;;7.65;3.60;;;;;;;-146.25;100.00;52268.84;2104502;28;35110;-71
2023/06/30 04:43:12;;;;;;;15.27;3.42;;;;;;;-146.25;100.00;52305.34;2104538;28;20038;-75
2023/06/30 04:44:14;;;;;;;10.40;3.17;;;;;;;-146.25;100.00;52272.91;2096571;28;34223;-73
2023/06/30 04:45:16;;;;;;;14.98;3.20;;;;;;;-146.25;100.00;52256.69;2105493;28;20876;-71
2023/06/30 04:46:19;;;;;;;13.00;3.58;;;;;;;-146.25;100.00;52307.38;2103929;28;35220;-75
2023/06/30 04:47:21;;;;;;;9.07;3.40;;;;;;;-146.25;100.00;52258.72;2096688;28;32060;-74